Terminal Aerodrome Forecast
Issued by NWS

Home | Current Version | Previous Version | Text Only | Print | Product List | Glossary On
Versions: 1 2 3 4 5 6 7 8 9 10 11 12 13 14 15
000
FTUS43 KGRB 022300
TAFCWA
TAF
KCWA 022325Z 0300/0324 23010G15KT P6SM SCT080
     FM030100 21006KT P6SM SCT250
     FM031500 20014G22KT P6SM SCT045
     FM032200 22015G24KT P6SM SCT050 BKN090
      AMD LTD TO CLD VIS AND WIND 0303/0311=

USA.gov is the U.S. government's official web portal to all federal, state and local government web resources and services.